sensor_id;sensor_type;location;lat;lon;timestamp;P1;P2;P0
24012;PMS7003;12220;50.194;18.948;2023-06-14T00:01:18;11;9;8
24012;PMS7003;12220;50.194;18.948;2023-06-14T00:03:28;12;11;8
24012;PMS7003;12220;50.194;18.948;2023-06-14T00:05:32;11;9;7
24012;PMS7003;12220;50.194;18.948;2023-06-14T00:07:43;9;8;5
24012;PMS7003;12220;50.194;18.948;2023-06-14T00:09:44;9;9;8
24012;PMS7003;12220;50.194;18.948;2023-06-14T00:11:48;9;7;5
24012;PMS7003;12220;50.194;18.948;2023-06-14T00:13:49;8;8;6
24012;PMS7003;12220;50.194;18.948;2023-06-14T00:15:50;10;7;5
24012;PMS7003;12220;50.194;18.948;2023-06-14T00:17:55;8;8;5
24012;PMS7003;12220;50.194;18.948;2023-06-14T00:20:03;8;8;5
24012;PMS7003;12220;50.194;18.948;2023-06-14T00:22:08;9;9;7
24012;PMS7003;12220;50.194;18.948;2023-06-14T00:24:10;8;8;5
24012;PMS7003;12220;50.194;18.948;2023-06-14T00:26:11;10;8;5
24012;PMS7003;12220;50.194;18.948;2023-06-14T00:29:14;5;5;3
24012;PMS7003;12220;50.194;18.948;2023-06-14T00:31:15;8;8;6
24012;PMS7003;12220;50.194;18.948;2023-06-14T00:33:16;9;7;6
24012;PMS7003;12220;50.194;18.948;2023-06-14T00:35:17;6;6;4
24012;PMS7003;12220;50.194;18.948;2023-06-14T00:37:20;7;7;6
24012;PMS7003;12220;50.194;18.948;2023-06-14T00:39:21;7;7;5
24012;PMS7003;12220;50.194;18.948;2023-06-14T00:41:24;7;7;5
24012;PMS7003;12220;50.194;18.948;2023-06-14T00:43:25;8;6;4
24012;PMS7003;12220;50.194;18.948;2023-06-14T00:45:27;5;5;3
24012;PMS7003;12220;50.194;18.948;2023-06-14T00:47:32;7;7;5
24012;PMS7003;12220;50.194;18.948;2023-06-14T00:49:39;7;6;5
24012;PMS7003;12220;50.194;18.948;2023-06-14T00:51:40;8;7;5
24012;PMS7003;12220;50.194;18.948;2023-06-14T00:53:45;9;7;5
24012;PMS7003;12220;50.194;18.948;2023-06-14T00:55:49;9;6;5
24012;PMS7003;12220;50.194;18.948;2023-06-14T00:57:54;10;8;5
24012;PMS7003;12220;50.194;18.948;2023-06-14T00:59:56;6;6;4
24012;PMS7003;12220;50.194;18.948;2023-06-14T01:01:58;6;6;5
24012;PMS7003;12220;50.194;18.948;2023-06-14T01:03:59;8;6;5
24012;PMS7003;12220;50.194;18.948;2023-06-14T01:06:15;7;7;5
24012;PMS7003;12220;50.194;18.948;2023-06-14T01:10:53;6;6;5
24012;PMS7003;12220;50.194;18.948;2023-06-14T01:15:12;7;7;5
24012;PMS7003;12220;50.194;18.948;2023-06-14T01:17:14;5;5;5
24012;PMS7003;12220;50.194;18.948;2023-06-14T01:19:18;4;4;2
24012;PMS7003;12220;50.194;18.948;2023-06-14T01:21:26;6;6;4
24012;PMS7003;12220;50.194;18.948;2023-06-14T01:23:30;8;8;7
24012;PMS7003;12220;50.194;18.948;2023-06-14T01:25:33;5;5;4
24012;PMS7003;12220;50.194;18.948;2023-06-14T01:27:38;8;7;6
24012;PMS7003;12220;50.194;18.948;2023-06-14T01:29:39;6;6;5
24012;PMS7003;12220;50.194;18.948;2023-06-14T01:31:46;9;7;6
24012;PMS7003;12220;50.194;18.948;2023-06-14T01:33:49;7;7;5
24012;PMS7003;12220;50.194;18.948;2023-06-14T01:35:51;5;5;4
24012;PMS7003;12220;50.194;18.948;2023-06-14T01:37:54;5;5;4
24012;PMS7003;12220;50.194;18.948;2023-06-14T01:39:56;6;6;4
24012;PMS7003;12220;50.194;18.948;2023-06-14T01:41:58;7;5;4
24012;PMS7003;12220;50.194;18.948;2023-06-14T01:44:06;7;4;2
24012;PMS7003;12220;50.194;18.948;2023-06-14T01:46:08;5;5;4
24012;PMS7003;12220;50.194;18.948;2023-06-14T01:48:11;6;6;4
24012;PMS7003;12220;50.194;18.948;2023-06-14T01:50:13;5;3;3
24012;PMS7003;12220;50.194;18.948;2023-06-14T01:52:21;5;5;4
24012;PMS7003;12220;50.194;18.948;2023-06-14T01:54:24;5;3;3
24012;PMS7003;12220;50.194;18.948;2023-06-14T01:56:26;7;7;5
24012;PMS7003;12220;50.194;18.948;2023-06-14T01:58:27;8;5;4
24012;PMS7003;12220;50.194;18.948;2023-06-14T02:00:36;5;5;4
24012;PMS7003;12220;50.194;18.948;2023-06-14T02:02:38;6;5;4
24012;PMS7003;12220;50.194;18.948;2023-06-14T02:04:40;5;5;4
24012;PMS7003;12220;50.194;18.948;2023-06-14T02:06:41;7;7;5
24012;PMS7003;12220;50.194;18.948;2023-06-14T02:08:51;11;6;4
24012;PMS7003;12220;50.194;18.948;2023-06-14T02:10:52;6;6;4
24012;PMS7003;12220;50.194;18.948;2023-06-14T02:12:55;6;6;4
24012;PMS7003;12220;50.194;18.948;2023-06-14T02:14:56;6;6;5
24012;PMS7003;12220;50.194;18.948;2023-06-14T02:17:06;5;5;4
24012;PMS7003;12220;50.194;18.948;2023-06-14T02:19:08;7;7;5
24012;PMS7003;12220;50.194;18.948;2023-06-14T02:21:09;4;4;3
24012;PMS7003;12220;50.194;18.948;2023-06-14T02:23:11;5;5;4
24012;PMS7003;12220;50.194;18.948;2023-06-14T02:25:21;5;4;3
24012;PMS7003;12220;50.194;18.948;2023-06-14T02:27:22;7;4;4
24012;PMS7003;12220;50.194;18.948;2023-06-14T02:29:23;7;5;4
24012;PMS7003;12220;50.194;18.948;2023-06-14T02:31:25;6;6;3
24012;PMS7003;12220;50.194;18.948;2023-06-14T02:33:36;4;4;4
24012;PMS7003;12220;50.194;18.948;2023-06-14T02:35:37;6;4;4
24012;PMS7003;12220;50.194;18.948;2023-06-14T02:37:39;7;7;5
24012;PMS7003;12220;50.194;18.948;2023-06-14T02:39:40;7;7;5
24012;PMS7003;12220;50.194;18.948;2023-06-14T02:41:51;5;5;4
24012;PMS7003;12220;50.194;18.948;2023-06-14T02:43:52;5;5;4
24012;PMS7003;12220;50.194;18.948;2023-06-14T02:45:54;9;6;5
24012;PMS7003;12220;50.194;18.948;2023-06-14T02:47:55;6;5;4
24012;PMS7003;12220;50.194;18.948;2023-06-14T02:50:06;8;6;5
24012;PMS7003;12220;50.194;18.948;2023-06-14T02:52:08;4;3;3
24012;PMS7003;12220;50.194;18.948;2023-06-14T02:54:09;9;5;4
24012;PMS7003;12220;50.194;18.948;2023-06-14T02:56:11;6;6;4
24012;PMS7003;12220;50.194;18.948;2023-06-14T02:58:21;7;6;5
24012;PMS7003;12220;50.194;18.948;2023-06-14T03:00:22;7;6;5
24012;PMS7003;12220;50.194;18.948;2023-06-14T03:02:23;7;7;6
24012;PMS7003;12220;50.194;18.948;2023-06-14T03:04:25;9;9;6
24012;PMS7003;12220;50.194;18.948;2023-06-14T03:06:35;7;7;4
24012;PMS7003;12220;50.194;18.948;2023-06-14T03:08:37;7;7;4
24012;PMS7003;12220;50.194;18.948;2023-06-14T03:10:48;8;8;5
24012;PMS7003;12220;50.194;18.948;2023-06-14T03:12:50;6;6;4
24012;PMS7003;12220;50.194;18.948;2023-06-14T03:14:55;9;6;4
24012;PMS7003;12220;50.194;18.948;2023-06-14T03:16:57;6;5;4
24012;PMS7003;12220;50.194;18.948;2023-06-14T03:19:00;7;6;4
24012;PMS7003;12220;50.194;18.948;2023-06-14T03:21:02;8;8;5
24012;PMS7003;12220;50.194;18.948;2023-06-14T03:23:06;8;8;6
24012;PMS7003;12220;50.194;18.948;2023-06-14T03:25:08;7;7;4
24012;PMS7003;12220;50.194;18.948;2023-06-14T03:27:10;6;5;4
24012;PMS7003;12220;50.194;18.948;2023-06-14T03:29:13;7;6;5
24012;PMS7003;12220;50.194;18.948;2023-06-14T03:31:20;9;7;4
24012;PMS7003;12220;50.194;18.948;2023-06-14T03:33:22;8;7;5
24012;PMS7003;12220;50.194;18.948;2023-06-14T03:35:26;7;6;5
24012;PMS7003;12220;50.194;18.948;2023-06-14T03:37:27;6;6;4
24012;PMS7003;12220;50.194;18.948;2023-06-14T03:39:35;6;4;4
24012;PMS7003;12220;50.194;18.948;2023-06-14T03:41:37;6;6;5
24012;PMS7003;12220;50.194;18.948;2023-06-14T03:43:39;5;5;4
24012;PMS7003;12220;50.194;18.948;2023-06-14T03:45:40;6;5;5
24012;PMS7003;12220;50.194;18.948;2023-06-14T03:47:50;12;3;3
24012;PMS7003;12220;50.194;18.948;2023-06-14T03:49:52;6;6;4
24012;PMS7003;12220;50.194;18.948;2023-06-14T03:51:54;7;6;5
24012;PMS7003;12220;50.194;18.948;2023-06-14T03:53:56;7;7;6
24012;PMS7003;12220;50.194;18.948;2023-06-14T03:56:05;11;9;7
24012;PMS7003;12220;50.194;18.948;2023-06-14T03:58:08;5;5;4
24012;PMS7003;12220;50.194;18.948;2023-06-14T04:00:10;10;8;6
24012;PMS7003;12220;50.194;18.948;2023-06-14T04:02:13;9;9;4
24012;PMS7003;12220;50.194;18.948;2023-06-14T04:04:20;8;8;6
24012;PMS7003;12220;50.194;18.948;2023-06-14T04:06:22;12;11;7
24012;PMS7003;12220;50.194;18.948;2023-06-14T04:08:30;6;6;6
24012;PMS7003;12220;50.194;18.948;2023-06-14T04:10:31;5;5;4
24012;PMS7003;12220;50.194;18.948;2023-06-14T04:12:38;12;8;7
24012;PMS7003;12220;50.194;18.948;2023-06-14T04:14:57;6;6;4
24012;PMS7003;12220;50.194;18.948;2023-06-14T04:17:04;11;7;5
24012;PMS7003;12220;50.194;18.948;2023-06-14T04:19:05;10;9;6
24012;PMS7003;12220;50.194;18.948;2023-06-14T04:21:07;6;5;4
24012;PMS7003;12220;50.194;18.948;2023-06-14T04:23:12;10;9;8
24012;PMS7003;12220;50.194;18.948;2023-06-14T04:25:19;9;9;8
24012;PMS7003;12220;50.194;18.948;2023-06-14T04:27:21;12;8;6
24012;PMS7003;12220;50.194;18.948;2023-06-14T04:29:27;8;7;5
24012;PMS7003;12220;50.194;18.948;2023-06-14T04:31:30;17;10;7
24012;PMS7003;12220;50.194;18.948;2023-06-14T04:33:37;9;8;6
24012;PMS7003;12220;50.194;18.948;2023-06-14T04:35:46;3;3;2
24012;PMS7003;12220;50.194;18.948;2023-06-14T04:37:49;6;6;5
24012;PMS7003;12220;50.194;18.948;2023-06-14T04:39:51;8;8;7
24012;PMS7003;12220;50.194;18.948;2023-06-14T04:41:53;11;8;6
24012;PMS7003;12220;50.194;18.948;2023-06-14T04:43:57;8;8;5
24012;PMS7003;12220;50.194;18.948;2023-06-14T04:46:06;6;6;4
24012;PMS7003;12220;50.194;18.948;2023-06-14T04:48:11;8;8;6
24012;PMS7003;12220;50.194;18.948;2023-06-14T04:50:13;9;9;7
24012;PMS7003;12220;50.194;18.948;2023-06-14T04:52:16;9;8;6
24012;PMS7003;12220;50.194;18.948;2023-06-14T04:54:21;8;8;6
24012;PMS7003;12220;50.194;18.948;2023-06-14T04:56:23;9;8;6
24012;PMS7003;12220;50.194;18.948;2023-06-14T04:58:26;9;7;6
24012;PMS7003;12220;50.194;18.948;2023-06-14T05:00:29;6;5;4
24012;PMS7003;12220;50.194;18.948;2023-06-14T05:02:31;7;7;6
24012;PMS7003;12220;50.194;18.948;2023-06-14T05:04:36;8;8;5
24012;PMS7003;12220;50.194;18.948;2023-06-14T05:06:40;9;7;5
24012;PMS7003;12220;50.194;18.948;2023-06-14T05:08:45;10;8;5
24012;PMS7003;12220;50.194;18.948;2023-06-14T05:10:46;6;6;4
24012;PMS7003;12220;50.194;18.948;2023-06-14T05:12:51;6;6;5
24012;PMS7003;12220;50.194;18.948;2023-06-14T05:14:54;7;6;4
24012;PMS7003;12220;50.194;18.948;2023-06-14T05:16:58;7;6;4
24012;PMS7003;12220;50.194;18.948;2023-06-14T05:19:00;8;7;5
24012;PMS7003;12220;50.194;18.948;2023-06-14T05:21:06;7;7;4
24012;PMS7003;12220;50.194;18.948;2023-06-14T05:23:08;5;5;4
24012;PMS7003;12220;50.194;18.948;2023-06-14T05:25:15;9;9;7
24012;PMS7003;12220;50.194;18.948;2023-06-14T05:27:16;7;7;5
24012;PMS7003;12220;50.194;18.948;2023-06-14T05:29:21;8;8;6
24012;PMS7003;12220;50.194;18.948;2023-06-14T05:31:23;11;9;6
24012;PMS7003;12220;50.194;18.948;2023-06-14T05:33:29;14;8;7
24012;PMS7003;12220;50.194;18.948;2023-06-14T05:35:31;12;10;6
24012;PMS7003;12220;50.194;18.948;2023-06-14T05:37:36;11;10;7
24012;PMS7003;12220;50.194;18.948;2023-06-14T05:39:37;14;9;6
24012;PMS7003;12220;50.194;18.948;2023-06-14T05:41:39;6;6;5
24012;PMS7003;12220;50.194;18.948;2023-06-14T05:43:40;14;14;9
24012;PMS7003;12220;50.194;18.948;2023-06-14T05:45:51;5;4;3
24012;PMS7003;12220;50.194;18.948;2023-06-14T05:47:52;9;7;6
24012;PMS7003;12220;50.194;18.948;2023-06-14T05:49:55;10;10;8
24012;PMS7003;12220;50.194;18.948;2023-06-14T05:51:56;9;8;7
24012;PMS7003;12220;50.194;18.948;2023-06-14T05:54:06;13;10;7
24012;PMS7003;12220;50.194;18.948;2023-06-14T06:01:09;9;9;7
24012;PMS7003;12220;50.194;18.948;2023-06-14T06:03:10;15;12;8
24012;PMS7003;12220;50.194;18.948;2023-06-14T06:05:20;9;9;8
24012;PMS7003;12220;50.194;18.948;2023-06-14T06:07:22;7;6;4
24012;PMS7003;12220;50.194;18.948;2023-06-14T06:09:23;13;9;6
24012;PMS7003;12220;50.194;18.948;2023-06-14T06:11:24;10;10;8
24012;PMS7003;12220;50.194;18.948;2023-06-14T06:13:35;9;7;6
24012;PMS7003;12220;50.194;18.948;2023-06-14T06:15:37;11;9;7
24012;PMS7003;12220;50.194;18.948;2023-06-14T06:17:38;10;10;7
24012;PMS7003;12220;50.194;18.948;2023-06-14T06:19:40;7;6;5
24012;PMS7003;12220;50.194;18.948;2023-06-14T06:21:50;10;10;9
24012;PMS7003;12220;50.194;18.948;2023-06-14T06:23:51;9;9;7
24012;PMS7003;12220;50.194;18.948;2023-06-14T06:25:53;11;11;8
24012;PMS7003;12220;50.194;18.948;2023-06-14T06:27:57;12;10;7
24012;PMS7003;12220;50.194;18.948;2023-06-14T06:30:06;13;10;8
24012;PMS7003;12220;50.194;18.948;2023-06-14T06:32:08;10;10;6
24012;PMS7003;12220;50.194;18.948;2023-06-14T06:34:09;7;7;5
24012;PMS7003;12220;50.194;18.948;2023-06-14T06:36:10;9;9;6
24012;PMS7003;12220;50.194;18.948;2023-06-14T06:38:20;8;8;5
24012;PMS7003;12220;50.194;18.948;2023-06-14T06:40:21;10;10;8
24012;PMS7003;12220;50.194;18.948;2023-06-14T06:42:23;12;10;8
24012;PMS7003;12220;50.194;18.948;2023-06-14T06:44:25;10;10;8
24012;PMS7003;12220;50.194;18.948;2023-06-14T06:46:35;9;9;7
24012;PMS7003;12220;50.194;18.948;2023-06-14T06:48:41;7;7;5
24012;PMS7003;12220;50.194;18.948;2023-06-14T06:50:42;11;11;7
24012;PMS7003;12220;50.194;18.948;2023-06-14T06:52:44;9;9;8
24012;PMS7003;12220;50.194;18.948;2023-06-14T06:54:51;12;12;8
24012;PMS7003;12220;50.194;18.948;2023-06-14T06:56:56;10;9;7
24012;PMS7003;12220;50.194;18.948;2023-06-14T06:59:00;9;9;6
24012;PMS7003;12220;50.194;18.948;2023-06-14T07:01:02;12;12;8
24012;PMS7003;12220;50.194;18.948;2023-06-14T07:03:05;15;12;9
24012;PMS7003;12220;50.194;18.948;2023-06-14T07:05:06;21;15;10
24012;PMS7003;12220;50.194;18.948;2023-06-14T07:07:08;15;13;8
24012;PMS7003;12220;50.194;18.948;2023-06-14T07:09:13;13;13;9
24012;PMS7003;12220;50.194;18.948;2023-06-14T07:11:20;14;12;8
24012;PMS7003;12220;50.194;18.948;2023-06-14T07:13:21;10;9;6
24012;PMS7003;12220;50.194;18.948;2023-06-14T07:15:22;14;13;10
24012;PMS7003;12220;50.194;18.948;2023-06-14T07:17:24;11;11;9
24012;PMS7003;12220;50.194;18.948;2023-06-14T07:19:35;14;12;8
24012;PMS7003;12220;50.194;18.948;2023-06-14T07:21:36;12;12;9
24012;PMS7003;12220;50.194;18.948;2023-06-14T07:23:40;11;11;8
24012;PMS7003;12220;50.194;18.948;2023-06-14T07:25:42;13;11;8
24012;PMS7003;12220;50.194;18.948;2023-06-14T07:27:50;12;12;10
24012;PMS7003;12220;50.194;18.948;2023-06-14T07:29:51;14;13;7
24012;PMS7003;12220;50.194;18.948;2023-06-14T07:31:53;17;15;9
24012;PMS7003;12220;50.194;18.948;2023-06-14T07:33:54;19;17;11
24012;PMS7003;12220;50.194;18.948;2023-06-14T07:36:05;17;15;11
24012;PMS7003;12220;50.194;18.948;2023-06-14T07:38:06;14;13;10
24012;PMS7003;12220;50.194;18.948;2023-06-14T07:40:08;14;14;9
24012;PMS7003;12220;50.194;18.948;2023-06-14T07:42:11;11;8;6
24012;PMS7003;12220;50.194;18.948;2023-06-14T07:44:20;10;10;7
24012;PMS7003;12220;50.194;18.948;2023-06-14T07:46:21;13;12;11
24012;PMS7003;12220;50.194;18.948;2023-06-14T07:48:23;14;12;8
24012;PMS7003;12220;50.194;18.948;2023-06-14T07:50:24;15;14;9
24012;PMS7003;12220;50.194;18.948;2023-06-14T07:52:35;19;13;10
24012;PMS7003;12220;50.194;18.948;2023-06-14T07:54:36;12;12;7
24012;PMS7003;12220;50.194;18.948;2023-06-14T07:56:38;14;14;9
24012;PMS7003;12220;50.194;18.948;2023-06-14T07:58:39;16;16;12
24012;PMS7003;12220;50.194;18.948;2023-06-14T08:00:50;13;13;8
24012;PMS7003;12220;50.194;18.948;2023-06-14T08:02:52;17;16;10
24012;PMS7003;12220;50.194;18.948;2023-06-14T08:04:59;16;12;10
24012;PMS7003;12220;50.194;18.948;2023-06-14T08:07:01;20;19;10
24012;PMS7003;12220;50.194;18.948;2023-06-14T08:09:04;15;13;10
24012;PMS7003;12220;50.194;18.948;2023-06-14T08:11:06;19;14;10
24012;PMS7003;12220;50.194;18.948;2023-06-14T08:13:07;14;13;9
24012;PMS7003;12220;50.194;18.948;2023-06-14T08:15:10;12;12;8
24012;PMS7003;12220;50.194;18.948;2023-06-14T08:17:19;9;8;6
24012;PMS7003;12220;50.194;18.948;2023-06-14T08:19:21;13;13;9
24012;PMS7003;12220;50.194;18.948;2023-06-14T08:21:22;12;10;8
24012;PMS7003;12220;50.194;18.948;2023-06-14T08:23:24;12;12;9
24012;PMS7003;12220;50.194;18.948;2023-06-14T08:25:34;9;9;7
24012;PMS7003;12220;50.194;18.948;2023-06-14T08:27:36;5;5;4
24012;PMS7003;12220;50.194;18.948;2023-06-14T08:29:38;12;11;7
24012;PMS7003;12220;50.194;18.948;2023-06-14T08:31:42;14;11;8
24012;PMS7003;12220;50.194;18.948;2023-06-14T08:33:49;12;10;7
24012;PMS7003;12220;50.194;18.948;2023-06-14T08:35:50;9;9;6
24012;PMS7003;12220;50.194;18.948;2023-06-14T08:37:52;9;9;7
24012;PMS7003;12220;50.194;18.948;2023-06-14T08:39:53;6;6;4
24012;PMS7003;12220;50.194;18.948;2023-06-14T08:42:04;7;7;6
24012;PMS7003;12220;50.194;18.948;2023-06-14T08:44:08;7;7;6
24012;PMS7003;12220;50.194;18.948;2023-06-14T08:46:09;6;6;4
24012;PMS7003;12220;50.194;18.948;2023-06-14T08:48:17;10;9;8
24012;PMS7003;12220;50.194;18.948;2023-06-14T08:50:21;11;8;6
24012;PMS7003;12220;50.194;18.948;2023-06-14T08:52:26;8;8;7
24012;PMS7003;12220;50.194;18.948;2023-06-14T08:54:34;8;8;6
24012;PMS7003;12220;50.194;18.948;2023-06-14T08:56:44;12;10;7
24012;PMS7003;12220;50.194;18.948;2023-06-14T08:58:48;11;9;7
24012;PMS7003;12220;50.194;18.948;2023-06-14T09:01:03;11;11;8
24012;PMS7003;12220;50.194;18.948;2023-06-14T09:03:08;12;11;8
24012;PMS7003;12220;50.194;18.948;2023-06-14T09:05:14;7;7;5
24012;PMS7003;12220;50.194;18.948;2023-06-14T09:07:18;13;12;9
24012;PMS7003;12220;50.194;18.948;2023-06-14T09:09:22;11;11;8
24012;PMS7003;12220;50.194;18.948;2023-06-14T09:11:26;11;11;8
24012;PMS7003;12220;50.194;18.948;2023-06-14T09:13:28;10;10;8
24012;PMS7003;12220;50.194;18.948;2023-06-14T09:15:30;11;11;9
24012;PMS7003;12220;50.194;18.948;2023-06-14T09:17:36;10;10;7
24012;PMS7003;12220;50.194;18.948;2023-06-14T09:19:41;9;9;7
24012;PMS7003;12220;50.194;18.948;2023-06-14T09:21:42;12;11;10
24012;PMS7003;12220;50.194;18.948;2023-06-14T09:23:48;7;7;6
24012;PMS7003;12220;50.194;18.948;2023-06-14T09:25:50;11;11;9
24012;PMS7003;12220;50.194;18.948;2023-06-14T09:27:51;9;9;7
24012;PMS7003;12220;50.194;18.948;2023-06-14T09:29:53;7;7;5
24012;PMS7003;12220;50.194;18.948;2023-06-14T09:31:54;7;7;6
24012;PMS7003;12220;50.194;18.948;2023-06-14T09:34:04;8;8;7
24012;PMS7003;12220;50.194;18.948;2023-06-14T09:36:10;11;11;7
24012;PMS7003;12220;50.194;18.948;2023-06-14T09:38:13;8;8;5
24012;PMS7003;12220;50.194;18.948;2023-06-14T09:40:20;2;2;2
24012;PMS7003;12220;50.194;18.948;2023-06-14T09:42:22;5;5;4
24012;PMS7003;12220;50.194;18.948;2023-06-14T09:44:26;10;9;8
24012;PMS7003;12220;50.194;18.948;2023-06-14T09:46:31;11;11;9
24012;PMS7003;12220;50.194;18.948;2023-06-14T09:48:32;16;12;10
24012;PMS7003;12220;50.194;18.948;2023-06-14T09:50:35;9;9;8
24012;PMS7003;12220;50.194;18.948;2023-06-14T09:52:37;11;8;7
24012;PMS7003;12220;50.194;18.948;2023-06-14T09:54:42;11;8;7
24012;PMS7003;12220;50.194;18.948;2023-06-14T09:56:47;11;10;8
24012;PMS7003;12220;50.194;18.948;2023-06-14T09:58:55;8;8;6
24012;PMS7003;12220;50.194;18.948;2023-06-14T10:00:58;5;5;5
24012;PMS7003;12220;50.194;18.948;2023-06-14T10:03:00;7;7;5
24012;PMS7003;12220;50.194;18.948;2023-06-14T10:05:11;6;6;5
24012;PMS7003;12220;50.194;18.948;2023-06-14T10:07:14;6;6;6
24012;PMS7003;12220;50.194;18.948;2023-06-14T10:09:26;6;6;5
24012;PMS7003;12220;50.194;18.948;2023-06-14T10:11:30;5;5;4
24012;PMS7003;12220;50.194;18.948;2023-06-14T10:13:32;4;4;3
24012;PMS7003;12220;50.194;18.948;2023-06-14T10:15:38;5;5;4
24012;PMS7003;12220;50.194;18.948;2023-06-14T10:17:52;8;8;6
24012;PMS7003;12220;50.194;18.948;2023-06-14T10:22:29;5;5;4
24012;PMS7003;12220;50.194;18.948;2023-06-14T10:24:46;8;8;7
24012;PMS7003;12220;50.194;18.948;2023-06-14T10:26:51;6;6;5
24012;PMS7003;12220;50.194;18.948;2023-06-14T10:31:02;6;6;5
24012;PMS7003;12220;50.194;18.948;2023-06-14T10:33:07;9;9;7
24012;PMS7003;12220;50.194;18.948;2023-06-14T10:35:13;5;5;4
24012;PMS7003;12220;50.194;18.948;2023-06-14T10:37:17;7;7;6
24012;PMS7003;12220;50.194;18.948;2023-06-14T10:39:18;6;6;5
24012;PMS7003;12220;50.194;18.948;2023-06-14T10:41:22;8;6;5
24012;PMS7003;12220;50.194;18.948;2023-06-14T10:43:23;6;6;4
24012;PMS7003;12220;50.194;18.948;2023-06-14T10:45:25;6;6;5
24012;PMS7003;12220;50.194;18.948;2023-06-14T10:47:33;12;10;9
24012;PMS7003;12220;50.194;18.948;2023-06-14T10:49:40;8;8;6
24012;PMS7003;12220;50.194;18.948;2023-06-14T10:51:44;8;8;7
24012;PMS7003;12220;50.194;18.948;2023-06-14T10:53:50;7;7;6
24012;PMS7003;12220;50.194;18.948;2023-06-14T10:55:51;7;7;6
24012;PMS7003;12220;50.194;18.948;2023-06-14T10:57:54;8;8;6
24012;PMS7003;12220;50.194;18.948;2023-06-14T11:00:00;6;6;5
24012;PMS7003;12220;50.194;18.948;2023-06-14T11:04:34;6;6;5
24012;PMS7003;12220;50.194;18.948;2023-06-14T11:11:00;5;5;4
24012;PMS7003;12220;50.194;18.948;2023-06-14T11:13:07;7;6;5
24012;PMS7003;12220;50.194;18.948;2023-06-14T11:15:09;7;7;5
24012;PMS7003;12220;50.194;18.948;2023-06-14T11:17:11;8;8;6
24012;PMS7003;12220;50.194;18.948;2023-06-14T11:19:14;4;4;4
24012;PMS7003;12220;50.194;18.948;2023-06-14T11:21:18;9;7;6
24012;PMS7003;12220;50.194;18.948;2023-06-14T11:23:20;5;5;4
24012;PMS7003;12220;50.194;18.948;2023-06-14T11:25:23;7;7;5
24012;PMS7003;12220;50.194;18.948;2023-06-14T11:27:29;4;4;4
24012;PMS7003;12220;50.194;18.948;2023-06-14T11:29:33;7;7;6
24012;PMS7003;12220;50.194;18.948;2023-06-14T11:31:35;7;7;5
24012;PMS7003;12220;50.194;18.948;2023-06-14T11:33:36;7;7;6
24012;PMS7003;12220;50.194;18.948;2023-06-14T11:35:44;7;7;6
24012;PMS7003;12220;50.194;18.948;2023-06-14T11:37:46;7;5;5
24012;PMS7003;12220;50.194;18.948;2023-06-14T11:39:49;6;6;5
24012;PMS7003;12220;50.194;18.948;2023-06-14T11:41:50;7;6;5
24012;PMS7003;12220;50.194;18.948;2023-06-14T11:44:00;7;7;6
24012;PMS7003;12220;50.194;18.948;2023-06-14T11:46:03;6;6;4
24012;PMS7003;12220;50.194;18.948;2023-06-14T11:48:04;4;4;4
24012;PMS7003;12220;50.194;18.948;2023-06-14T11:50:10;4;4;4
24012;PMS7003;12220;50.194;18.948;2023-06-14T11:52:14;4;4;4
24012;PMS7003;12220;50.194;18.948;2023-06-14T11:54:15;3;3;3
24012;PMS7003;12220;50.194;18.948;2023-06-14T11:56:17;5;5;5
24012;PMS7003;12220;50.194;18.948;2023-06-14T11:58:18;4;4;4
24012;PMS7003;12220;50.194;18.948;2023-06-14T12:00:28;6;6;5
24012;PMS7003;12220;50.194;18.948;2023-06-14T12:02:31;5;5;5
24012;PMS7003;12220;50.194;18.948;2023-06-14T12:04:32;6;6;5
24012;PMS7003;12220;50.194;18.948;2023-06-14T12:06:36;7;7;6
24012;PMS7003;12220;50.194;18.948;2023-06-14T12:08:43;4;4;3
24012;PMS7003;12220;50.194;18.948;2023-06-14T12:10:51;8;8;7
24012;PMS7003;12220;50.194;18.948;2023-06-14T12:12:56;6;6;6
24012;PMS7003;12220;50.194;18.948;2023-06-14T12:14:59;6;6;6
24012;PMS7003;12220;50.194;18.948;2023-06-14T12:17:06;6;6;6
24012;PMS7003;12220;50.194;18.948;2023-06-14T12:21:16;3;3;3
24012;PMS7003;12220;50.194;18.948;2023-06-14T12:23:18;4;4;4
24012;PMS7003;12220;50.194;18.948;2023-06-14T12:25:26;4;4;3
24012;PMS7003;12220;50.194;18.948;2023-06-14T12:27:42;5;5;4
24012;PMS7003;12220;50.194;18.948;2023-06-14T12:29:44;6;6;5
24012;PMS7003;12220;50.194;18.948;2023-06-14T12:31:45;4;4;4
24012;PMS7003;12220;50.194;18.948;2023-06-14T12:33:47;4;4;3
24012;PMS7003;12220;50.194;18.948;2023-06-14T12:35:57;4;4;4
24012;PMS7003;12220;50.194;18.948;2023-06-14T12:37:59;5;5;4
24012;PMS7003;12220;50.194;18.948;2023-06-14T12:40:01;4;4;4
24012;PMS7003;12220;50.194;18.948;2023-06-14T12:42:06;5;5;4
24012;PMS7003;12220;50.194;18.948;2023-06-14T12:44:12;5;5;4
24012;PMS7003;12220;50.194;18.948;2023-06-14T12:46:14;5;5;4
24012;PMS7003;12220;50.194;18.948;2023-06-14T12:48:18;6;6;6
24012;PMS7003;12220;50.194;18.948;2023-06-14T12:50:20;5;5;4
24012;PMS7003;12220;50.194;18.948;2023-06-14T12:52:27;6;5;5
24012;PMS7003;12220;50.194;18.948;2023-06-14T12:54:28;5;5;4
24012;PMS7003;12220;50.194;18.948;2023-06-14T12:56:30;4;3;3
24012;PMS7003;12220;50.194;18.948;2023-06-14T12:58:31;5;5;4
24012;PMS7003;12220;50.194;18.948;2023-06-14T13:00:42;5;5;4
24012;PMS7003;12220;50.194;18.948;2023-06-14T13:02:43;4;4;4
24012;PMS7003;12220;50.194;18.948;2023-06-14T13:04:45;5;5;5
24012;PMS7003;12220;50.194;18.948;2023-06-14T13:06:46;4;4;3
24012;PMS7003;12220;50.194;18.948;2023-06-14T13:08:57;4;4;4
24012;PMS7003;12220;50.194;18.948;2023-06-14T13:10:59;4;3;3
24012;PMS7003;12220;50.194;18.948;2023-06-14T13:13:01;4;4;4
24012;PMS7003;12220;50.194;18.948;2023-06-14T13:15:03;5;5;3
24012;PMS7003;12220;50.194;18.948;2023-06-14T13:17:12;5;5;5
24012;PMS7003;12220;50.194;18.948;2023-06-14T13:19:13;6;6;5
24012;PMS7003;12220;50.194;18.948;2023-06-14T13:21:14;8;7;5
24012;PMS7003;12220;50.194;18.948;2023-06-14T13:23:16;7;6;5
24012;PMS7003;12220;50.194;18.948;2023-06-14T13:25:26;5;5;5
24012;PMS7003;12220;50.194;18.948;2023-06-14T13:27:28;4;4;4
24012;PMS7003;12220;50.194;18.948;2023-06-14T13:29:29;6;6;5
24012;PMS7003;12220;50.194;18.948;2023-06-14T13:31:33;7;7;6
24012;PMS7003;12220;50.194;18.948;2023-06-14T13:33:41;8;8;7
24012;PMS7003;12220;50.194;18.948;2023-06-14T13:35:43;5;5;4
24012;PMS7003;12220;50.194;18.948;2023-06-14T13:37:44;7;6;5
24012;PMS7003;12220;50.194;18.948;2023-06-14T13:39:46;5;5;4
24012;PMS7003;12220;50.194;18.948;2023-06-14T13:41:56;4;4;4
24012;PMS7003;12220;50.194;18.948;2023-06-14T13:43:58;4;3;3
24012;PMS7003;12220;50.194;18.948;2023-06-14T13:45:59;5;5;4
24012;PMS7003;12220;50.194;18.948;2023-06-14T13:48:01;4;4;4
24012;PMS7003;12220;50.194;18.948;2023-06-14T13:50:11;4;4;3
24012;PMS7003;12220;50.194;18.948;2023-06-14T13:52:16;3;3;3
24012;PMS7003;12220;50.194;18.948;2023-06-14T13:54:19;3;3;3
24012;PMS7003;12220;50.194;18.948;2023-06-14T13:56:22;2;2;2
24012;PMS7003;12220;50.194;18.948;2023-06-14T13:58:26;3;2;2
24012;PMS7003;12220;50.194;18.948;2023-06-14T14:00:27;2;2;2